Time;durP1;ratioP1;P1;durP2;ratioP2;P2;SDS_P1;SDS_P2;PMS_P1;PMS_P2;Temp;Humidity;BMP_temperature;BMP_pressure;BME280_temperature;BME280_humidity;BME280_pressure;Samples;Min_cycle;Max_cycle;Signal;HPM_P1;HPM_P2
2024/01/30 00:00:39;;;;;;;7.83;7.03;;;4.50;99.90;;;;;;5023824;28;20203;-54
2024/01/30 00:03:06;;;;;;;8.30;6.70;;;4.40;99.90;;;;;;5031579;28;20203;-55
2024/01/30 00:05:32;;;;;;;9.27;7.53;;;4.40;99.90;;;;;;5035746;28;20901;-54
2024/01/30 00:07:59;;;;;;;9.90;7.17;;;4.40;99.90;;;;;;5037449;28;20192;-54
2024/01/30 00:10:26;;;;;;;8.77;6.67;;;4.40;99.90;;;;;;5036141;28;20749;-55
2024/01/30 00:12:53;;;;;;;8.67;7.13;;;4.30;99.90;;;;;;5035581;28;20228;-55
2024/01/30 00:15:20;;;;;;;9.50;6.93;;;4.30;99.90;;;;;;5000553;28;20211;-53
2024/01/30 00:17:48;;;;;;;8.33;6.70;;;4.30;99.90;;;;;;5029134;28;20261;-51
2024/01/30 00:20:15;;;;;;;13.53;7.30;;;4.20;99.90;;;;;;5027300;28;20203;-52
2024/01/30 00:22:42;;;;;;;7.03;6.37;;;4.20;99.90;;;;;;5035217;28;20236;-55
2024/01/30 00:25:09;;;;;;;8.60;7.17;;;4.20;99.90;;;;;;5036554;28;20204;-55
2024/01/30 00:27:36;;;;;;;10.33;6.80;;;4.20;99.90;;;;;;5036149;28;20466;-54
2024/01/30 00:30:04;;;;;;;9.00;6.80;;;4.20;99.90;;;;;;5009284;28;20218;-54
2024/01/30 00:32:31;;;;;;;8.73;6.67;;;4.20;99.90;;;;;;5035487;28;20219;-50
2024/01/30 00:34:59;;;;;;;9.33;6.23;;;4.20;99.90;;;;;;5030023;28;20211;-52
2024/01/30 00:37:26;;;;;;;8.63;6.60;;;4.20;99.90;;;;;;5033640;28;20196;-54
2024/01/30 00:39:53;;;;;;;9.17;6.67;;;4.20;99.90;;;;;;5037121;28;20199;-49
2024/01/30 00:42:21;;;;;;;7.63;6.70;;;4.20;99.90;;;;;;5033930;28;20247;-55
2024/01/30 00:44:47;;;;;;;7.43;6.70;;;4.20;99.90;;;;;;5005069;28;20209;-52
2024/01/30 00:47:14;;;;;;;9.93;6.33;;;4.20;99.90;;;;;;5031967;28;20219;-54
2024/01/30 00:49:41;;;;;;;13.63;6.53;;;4.20;99.90;;;;;;5027015;28;20270;-51
2024/01/30 00:52:09;;;;;;;9.03;6.10;;;4.20;99.90;;;;;;5034347;28;20207;-56
2024/01/30 00:54:36;;;;;;;8.33;6.77;;;4.20;99.90;;;;;;5031202;28;20187;-55
2024/01/30 00:57:04;;;;;;;8.57;6.70;;;4.20;99.90;;;;;;5025989;28;20251;-49
2024/01/30 00:59:30;;;;;;;7.57;6.43;;;4.20;99.90;;;;;;5028953;28;20203;-56
2024/01/30 01:01:57;;;;;;;6.70;5.93;;;4.20;99.90;;;;;;5006424;28;21394;-54
2024/01/30 01:04:24;;;;;;;7.67;5.80;;;4.20;99.90;;;;;;5030848;28;20927;-52
2024/01/30 01:06:51;;;;;;;8.33;6.33;;;4.10;99.90;;;;;;5034121;28;20229;-49
2024/01/30 01:09:19;;;;;;;7.53;6.17;;;4.10;99.90;;;;;;5039033;28;20200;-55
2024/01/30 01:11:46;;;;;;;9.73;6.53;;;4.10;99.90;;;;;;5035334;28;20215;-51
2024/01/30 01:14:12;;;;;;;7.53;6.47;;;4.00;99.90;;;;;;5042036;28;20202;-56
2024/01/30 01:16:39;;;;;;;7.50;5.63;;;3.90;99.90;;;;;;5001816;28;20353;-53
2024/01/30 01:19:09;;;;;;;10.33;6.60;;;3.90;99.90;;;;;;5023160;28;20210;-52
2024/01/30 01:21:36;;;;;;;7.63;6.77;;;3.90;99.90;;;;;;5021154;28;20207;-50
2024/01/30 01:24:02;;;;;;;9.00;6.40;;;3.90;99.90;;;;;;5028783;28;20226;-49
2024/01/30 01:26:30;;;;;;;9.83;6.80;;;3.80;99.90;;;;;;5018407;28;20293;-53
2024/01/30 01:28:57;;;;;;;9.37;6.57;;;3.90;99.90;;;;;;5033728;28;20671;-53
2024/01/30 01:31:24;;;;;;;9.20;5.90;;;3.90;99.90;;;;;;5002842;28;20347;-50
2024/01/30 01:33:51;;;;;;;7.37;6.63;;;3.90;99.90;;;;;;5036295;28;20249;-56
2024/01/30 01:36:18;;;;;;;7.30;5.97;;;3.80;99.90;;;;;;5025878;28;20254;-50
2024/01/30 01:38:45;;;;;;;9.30;7.57;;;3.90;99.90;;;;;;5037990;28;20191;-55
2024/01/30 01:41:11;;;;;;;7.50;6.63;;;3.90;99.90;;;;;;5037068;28;20215;-52
2024/01/30 01:43:40;;;;;;;8.13;6.90;;;3.90;99.90;;;;;;5047290;28;20663;-53
2024/01/30 01:46:07;;;;;;;8.07;5.73;;;3.90;99.90;;;;;;5008872;28;21047;-52
2024/01/30 01:48:34;;;;;;;7.20;5.93;;;3.90;99.90;;;;;;5037038;28;20211;-50
2024/01/30 01:51:01;;;;;;;8.97;6.10;;;3.80;99.90;;;;;;5019944;28;20224;-55
2024/01/30 01:53:28;;;;;;;9.60;6.60;;;3.80;99.90;;;;;;5039335;28;20187;-50
2024/01/30 01:55:55;;;;;;;7.57;6.70;;;3.80;99.90;;;;;;5032700;28;20222;-52
2024/01/30 01:58:23;;;;;;;8.47;6.60;;;3.70;99.90;;;;;;5034530;28;20180;-54
2024/01/30 02:00:52;;;;;;;6.27;5.67;;;3.70;99.90;;;;;;5032210;28;20219;-54
2024/01/30 02:03:21;;;;;;;8.23;6.23;;;3.70;99.90;;;;;;5005728;28;20204;-52
2024/01/30 02:05:48;;;;;;;9.37;7.30;;;3.70;99.90;;;;;;5032273;28;20223;-55
2024/01/30 02:08:15;;;;;;;11.63;7.00;;;3.70;99.90;;;;;;5033135;28;20278;-49
2024/01/30 02:10:42;;;;;;;7.13;6.30;;;3.70;99.90;;;;;;5039303;28;20549;-55
2024/01/30 02:13:08;;;;;;;7.87;5.90;;;3.70;99.90;;;;;;5037203;28;20191;-50
2024/01/30 02:15:35;;;;;;;7.67;5.90;;;3.70;99.90;;;;;;5043184;28;20195;-52
2024/01/30 02:18:03;;;;;;;10.03;6.63;;;3.80;99.90;;;;;;5013580;28;20215;-57
2024/01/30 02:20:31;;;;;;;7.90;5.83;;;3.80;99.90;;;;;;5033651;28;20286;-52
2024/01/30 02:23:01;;;;;;;8.53;5.93;;;3.80;99.90;;;;;;5030833;28;20207;-56
2024/01/30 02:25:32;;;;;;;11.77;6.30;;;3.80;99.90;;;;;;5043500;28;20270;-50
2024/01/30 02:27:59;;;;;;;8.60;5.80;;;3.90;99.90;;;;;;5039118;28;20226;-55
2024/01/30 02:30:26;;;;;;;7.10;5.27;;;3.90;99.90;;;;;;5042541;28;20201;-52
2024/01/30 02:32:52;;;;;;;7.53;5.97;;;3.90;99.90;;;;;;5042898;28;20795;-56
2024/01/30 02:35:19;;;;;;;7.10;5.93;;;3.90;99.90;;;;;;5011019;28;20284;-51
2024/01/30 02:37:46;;;;;;;8.30;6.30;;;3.90;99.90;;;;;;5027749;28;20189;-54
2024/01/30 02:40:14;;;;;;;7.53;5.87;;;3.90;99.90;;;;;;5038298;28;20253;-53
2024/01/30 02:42:42;;;;;;;7.60;6.13;;;3.90;99.90;;;;;;5045303;28;20277;-51
2024/01/30 02:45:10;;;;;;;9.80;5.53;;;3.90;99.90;;;;;;5038031;28;20915;-52
2024/01/30 02:47:37;;;;;;;7.70;5.67;;;3.90;99.90;;;;;;5030598;28;20212;-53
2024/01/30 02:50:04;;;;;;;5.80;5.17;;;3.90;99.90;;;;;;5002744;28;20675;-53
2024/01/30 02:52:31;;;;;;;6.83;6.00;;;3.80;99.90;;;;;;5027175;28;20804;-52
2024/01/30 02:54:58;;;;;;;8.03;5.80;;;3.80;99.90;;;;;;5034238;28;20192;-55
2024/01/30 02:57:26;;;;;;;6.33;5.70;;;3.80;99.90;;;;;;5036468;28;20195;-51
2024/01/30 02:59:53;;;;;;;7.60;5.67;;;3.80;99.90;;;;;;5033794;28;20204;-56
2024/01/30 03:02:19;;;;;;;8.80;6.20;;;3.80;99.90;;;;;;5037409;28;20211;-54
2024/01/30 03:04:46;;;;;;;8.57;6.10;;;3.80;99.90;;;;;;5032124;28;20256;-56
2024/01/30 03:07:14;;;;;;;10.77;5.80;;;3.80;99.90;;;;;;5019489;28;20219;-53
2024/01/30 03:09:42;;;;;;;8.30;6.23;;;3.80;99.90;;;;;;5033869;28;20209;-52
2024/01/30 03:12:09;;;;;;;7.87;6.07;;;3.80;99.90;;;;;;5038520;28;20219;-50
2024/01/30 03:14:37;;;;;;;6.63;5.53;;;3.70;99.90;;;;;;5041490;28;20333;-52
2024/01/30 03:17:04;;;;;;;7.30;6.60;;;3.70;99.90;;;;;;5038141;28;20180;-52
2024/01/30 03:19:31;;;;;;;6.90;6.00;;;3.70;99.90;;;;;;5041930;28;20499;-52
2024/01/30 03:21:58;;;;;;;8.67;6.10;;;3.70;99.90;;;;;;5008714;28;20223;-55
2024/01/30 03:24:24;;;;;;;7.97;5.67;;;3.70;99.90;;;;;;5030672;28;20211;-53
2024/01/30 03:26:51;;;;;;;5.87;5.07;;;3.60;99.90;;;;;;5025531;28;20903;-50
2024/01/30 03:29:18;;;;;;;6.87;5.63;;;3.50;99.90;;;;;;5039150;28;20196;-57
2024/01/30 03:31:47;;;;;;;8.43;6.67;;;3.50;99.90;;;;;;5037097;28;20911;-50
2024/01/30 03:34:14;;;;;;;12.83;6.37;;;3.40;99.90;;;;;;5040031;28;20195;-54
2024/01/30 03:36:40;;;;;;;6.37;5.40;;;3.40;99.90;;;;;;5008259;28;20268;-54
2024/01/30 03:39:08;;;;;;;6.50;5.63;;;3.40;99.90;;;;;;5040942;28;20202;-51
2024/01/30 03:41:35;;;;;;;8.23;5.73;;;3.50;99.90;;;;;;5024282;28;20244;-56
2024/01/30 03:44:01;;;;;;;8.63;6.20;;;3.40;99.90;;;;;;5031814;28;20215;-54
2024/01/30 03:46:28;;;;;;;8.20;5.63;;;3.40;99.90;;;;;;5031891;28;20202;-57
2024/01/30 03:48:56;;;;;;;8.37;5.80;;;3.40;99.90;;;;;;5022889;28;20215;-52
2024/01/30 03:51:23;;;;;;;6.33;5.43;;;3.40;99.90;;;;;;5006378;28;20614;-53
2024/01/30 03:53:50;;;;;;;6.90;5.83;;;3.40;99.90;;;;;;5029548;28;20183;-54
2024/01/30 03:56:17;;;;;;;6.60;5.77;;;3.40;99.90;;;;;;5026265;28;20207;-53
2024/01/30 03:58:43;;;;;;;6.40;4.73;;;3.40;99.90;;;;;;5030791;28;20200;-56
2024/01/30 04:01:14;;;;;;;7.90;6.40;;;3.40;99.90;;;;;;5033586;28;20220;-51
2024/01/30 04:03:41;;;;;;;10.40;6.17;;;3.40;99.90;;;;;;5022615;28;20279;-54
2024/01/30 04:06:09;;;;;;;8.83;6.23;;;3.40;99.90;;;;;;5040822;28;20555;-51
2024/01/30 04:08:36;;;;;;;7.70;6.30;;;3.40;99.90;;;;;;5004773;28;20310;-57
2024/01/30 04:11:05;;;;;;;7.97;5.37;;;3.40;99.90;;;;;;5031375;28;20297;-52
2024/01/30 04:13:32;;;;;;;9.50;5.87;;;3.40;99.90;;;;;;5040636;28;20234;-57
2024/01/30 04:16:01;;;;;;;6.80;5.80;;;3.40;99.90;;;;;;5037934;28;20191;-51
2024/01/30 04:18:28;;;;;;;7.37;5.53;;;3.40;99.90;;;;;;5037884;28;20198;-55
2024/01/30 04:20:54;;;;;;;7.63;6.33;;;3.40;99.90;;;;;;5035128;28;20290;-54
2024/01/30 04:23:23;;;;;;;8.60;6.30;;;3.40;99.90;;;;;;5011048;28;20253;-50
2024/01/30 04:25:50;;;;;;;6.70;5.40;;;3.40;99.90;;;;;;5026107;28;20215;-52
2024/01/30 04:28:18;;;;;;;7.23;6.20;;;3.40;99.90;;;;;;5038961;28;20289;-54
2024/01/30 04:30:45;;;;;;;6.23;5.70;;;3.30;99.90;;;;;;5022502;28;20215;-50
2024/01/30 04:33:12;;;;;;;9.63;5.93;;;3.30;99.90;;;;;;5035270;28;20203;-60
2024/01/30 04:35:38;;;;;;;8.67;5.90;;;3.20;99.90;;;;;;5027188;28;20199;-50
2024/01/30 04:38:05;;;;;;;9.47;5.70;;;3.20;99.90;;;;;;5004206;28;20203;-50
2024/01/30 04:40:33;;;;;;;8.97;5.13;;;3.20;99.90;;;;;;5025518;28;20203;-53
2024/01/30 04:43:00;;;;;;;6.07;4.83;;;3.20;99.90;;;;;;5037596;28;20206;-51
2024/01/30 04:45:27;;;;;;;9.53;5.73;;;3.10;99.90;;;;;;5030881;28;20188;-51
2024/01/30 04:47:54;;;;;;;7.93;6.10;;;3.00;99.90;;;;;;5020832;28;20292;-51
2024/01/30 04:50:21;;;;;;;6.97;5.77;;;3.00;99.90;;;;;;5029791;28;20196;-53
2024/01/30 04:52:47;;;;;;;7.27;6.37;;;3.00;99.90;;;;;;4991088;28;20227;-57
2024/01/30 04:55:14;;;;;;;8.63;6.40;;;3.10;99.90;;;;;;5031986;28;20345;-51
2024/01/30 04:57:42;;;;;;;8.73;6.13;;;3.10;99.90;;;;;;5015085;28;20318;-57
2024/01/30 05:00:10;;;;;;;7.53;6.20;;;3.10;99.90;;;;;;5034470;28;20271;-53
2024/01/30 05:02:37;;;;;;;7.73;5.93;;;3.00;99.90;;;;;;5025271;28;20703;-54
2024/01/30 05:05:04;;;;;;;11.57;6.77;;;3.00;99.90;;;;;;5035691;28;20187;-52
2024/01/30 05:07:31;;;;;;;7.07;6.27;;;3.00;99.90;;;;;;5035836;28;20210;-55
2024/01/30 05:09:58;;;;;;;9.63;6.63;;;3.00;99.90;;;;;;4998256;28;20918;-52
2024/01/30 05:12:25;;;;;;;8.93;7.03;;;3.10;99.90;;;;;;5031446;28;20253;-53
2024/01/30 05:14:53;;;;;;;10.80;6.90;;;3.10;99.90;;;;;;5036548;28;20241;-51
2024/01/30 05:17:20;;;;;;;8.17;6.93;;;3.20;99.90;;;;;;5027306;28;20737;-55
2024/01/30 05:19:46;;;;;;;9.90;7.33;;;3.20;99.90;;;;;;5033766;28;20251;-53
2024/01/30 05:22:15;;;;;;;11.27;7.47;;;3.20;99.90;;;;;;5030963;28;20224;-56
2024/01/30 05:24:42;;;;;;;8.33;6.53;;;3.20;99.90;;;;;;5010513;28;21123;-51
2024/01/30 05:27:09;;;;;;;9.27;7.47;;;3.20;99.90;;;;;;5034149;28;20274;-57
2024/01/30 05:29:36;;;;;;;7.13;6.17;;;3.30;99.90;;;;;;5038960;28;20207;-54
2024/01/30 05:32:06;;;;;;;9.13;7.70;;;3.30;99.90;;;;;;5038348;28;20222;-55
2024/01/30 05:34:33;;;;;;;16.50;8.13;;;3.30;99.90;;;;;;5034742;28;20211;-54
2024/01/30 05:37:00;;;;;;;13.40;8.53;;;3.40;99.90;;;;;;5042032;28;20659;-56
2024/01/30 05:39:26;;;;;;;11.53;8.20;;;3.40;99.90;;;;;;5040983;28;20187;-54
2024/01/30 05:41:54;;;;;;;11.97;8.37;;;3.50;99.90;;;;;;5012718;28;20223;-53
2024/01/30 05:44:20;;;;;;;11.43;8.73;;;3.60;99.90;;;;;;5028539;28;20196;-51
2024/01/30 05:46:47;;;;;;;10.10;8.10;;;3.60;99.90;;;;;;5038198;28;20200;-53
2024/01/30 05:49:15;;;;;;;15.73;8.60;;;3.60;99.90;;;;;;5010888;28;20225;-55
2024/01/30 05:51:42;;;;;;;9.87;8.07;;;3.70;99.90;;;;;;5035227;28;20281;-56
2024/01/30 05:54:09;;;;;;;14.93;8.77;;;3.70;99.90;;;;;;5038093;28;20246;-56
2024/01/30 05:56:35;;;;;;;12.03;8.83;;;3.80;99.90;;;;;;5013648;28;20219;-54
2024/01/30 05:59:02;;;;;;;10.30;7.80;;;3.80;99.90;;;;;;5029880;28;20265;-57
2024/01/30 06:01:29;;;;;;;9.87;7.83;;;3.80;99.90;;;;;;5050208;28;20209;-51
2024/01/30 06:03:56;;;;;;;12.50;8.57;;;3.80;99.90;;;;;;5030858;28;20238;-55
2024/01/30 06:06:24;;;;;;;11.00;8.67;;;3.90;99.90;;;;;;5037476;28;20179;-52
2024/01/30 06:08:51;;;;;;;10.87;8.27;;;3.90;99.90;;;;;;5042122;28;20298;-50
2024/01/30 06:11:18;;;;;;;14.83;8.67;;;3.90;99.90;;;;;;5036877;28;20957;-53
2024/01/30 06:13:44;;;;;;;11.37;8.60;;;3.90;99.90;;;;;;5002630;28;20203;-55
2024/01/30 06:16:12;;;;;;;10.93;8.60;;;3.90;99.90;;;;;;5043554;28;20713;-56
2024/01/30 06:18:39;;;;;;;10.67;8.50;;;3.90;99.90;;;;;;5031714;28;20202;-54
2024/01/30 06:21:06;;;;;;;14.50;8.73;;;3.90;99.90;;;;;;5039276;28;20215;-57
2024/01/30 06:23:34;;;;;;;9.60;7.97;;;3.90;99.90;;;;;;5032197;28;20211;-54
2024/01/30 06:26:01;;;;;;;13.93;9.10;;;4.00;99.90;;;;;;5040741;28;20627;-57
2024/01/30 06:28:28;;;;;;;10.93;8.80;;;4.00;99.90;;;;;;5004735;28;22010;-54
2024/01/30 06:30:56;;;;;;;11.70;8.47;;;4.00;99.90;;;;;;5031470;28;20227;-54
2024/01/30 06:33:23;;;;;;;11.73;8.60;;;4.10;99.90;;;;;;5023264;28;20227;-56
2024/01/30 06:35:50;;;;;;;11.47;8.77;;;4.10;99.90;;;;;;5039428;28;20210;-55
2024/01/30 06:38:17;;;;;;;14.53;8.60;;;4.20;99.90;;;;;;5031946;28;20186;-56
2024/01/30 06:40:45;;;;;;;11.10;8.17;;;4.20;99.90;;;;;;5047051;28;20203;-52
2024/01/30 06:43:12;;;;;;;15.10;9.27;;;4.20;99.90;;;;;;5013043;28;20195;-54
2024/01/30 06:45:39;;;;;;;11.17;8.30;;;4.30;99.90;;;;;;5038453;28;20567;-54
2024/01/30 06:48:06;;;;;;;11.60;8.63;;;4.30;99.90;;;;;;5032965;28;21209;-55
2024/01/30 06:50:33;;;;;;;13.00;9.00;;;4.30;99.90;;;;;;5038193;28;20207;-51
2024/01/30 06:53:00;;;;;;;12.90;9.73;;;4.30;99.90;;;;;;5017371;28;20660;-53
2024/01/30 06:55:27;;;;;;;12.00;8.47;;;4.30;99.90;;;;;;5042053;28;20199;-53
2024/01/30 06:57:55;;;;;;;13.97;9.10;;;4.30;99.90;;;;;;5034942;28;20200;-55
2024/01/30 07:00:23;;;;;;;11.83;9.10;;;4.40;99.90;;;;;;4988875;28;20234;-57
2024/01/30 07:02:50;;;;;;;9.43;8.33;;;4.40;99.90;;;;;;5033307;28;20306;-56
2024/01/30 07:05:17;;;;;;;11.33;9.33;;;4.40;99.90;;;;;;5028587;28;20188;-52
2024/01/30 07:07:44;;;;;;;14.30;8.63;;;4.40;99.90;;;;;;5038964;28;20274;-56
2024/01/30 07:10:11;;;;;;;13.80;9.40;;;4.40;99.90;;;;;;5027934;28;20768;-54
2024/01/30 07:12:39;;;;;;;12.97;9.20;;;4.40;99.90;;;;;;5034468;28;20247;-55
2024/01/30 07:15:08;;;;;;;13.80;9.40;;;4.40;99.90;;;;;;4995686;28;20688;-54
2024/01/30 07:17:35;;;;;;;12.23;9.10;;;4.40;99.90;;;;;;5031833;28;20215;-56
2024/01/30 07:20:03;;;;;;;10.93;8.87;;;4.40;99.90;;;;;;5033485;28;20195;-55
2024/01/30 07:22:30;;;;;;;10.87;8.27;;;4.40;99.90;;;;;;5031328;28;20227;-55
2024/01/30 07:24:57;;;;;;;12.37;9.70;;;4.40;99.90;;;;;;5036199;28;20200;-56
2024/01/30 07:27:24;;;;;;;13.93;9.13;;;4.40;99.90;;;;;;5021588;28;20196;-55
2024/01/30 07:29:52;;;;;;;13.13;9.57;;;4.40;99.90;;;;;;5004174;28;20216;-52
2024/01/30 07:32:20;;;;;;;11.40;9.00;;;4.40;99.90;;;;;;5018587;28;20235;-53
2024/01/30 07:34:47;;;;;;;14.07;9.17;;;4.50;99.90;;;;;;5035930;28;20564;-51
2024/01/30 07:37:15;;;;;;;14.43;9.80;;;4.40;99.90;;;;;;5038536;28;20206;-52
2024/01/30 07:39:42;;;;;;;13.50;9.50;;;4.40;99.90;;;;;;5026927;28;20199;-55
2024/01/30 07:42:09;;;;;;;11.40;9.17;;;4.50;99.90;;;;;;5021403;28;20219;-52
2024/01/30 07:44:36;;;;;;;12.20;9.57;;;4.50;99.90;;;;;;5036745;28;20293;-52
2024/01/30 07:47:03;;;;;;;15.37;10.17;;;4.50;99.90;;;;;;4991552;28;20856;-55
2024/01/30 07:49:32;;;;;;;10.57;8.67;;;4.50;99.90;;;;;;5033570;28;20216;-56
2024/01/30 07:52:01;;;;;;;14.27;9.93;;;4.50;99.90;;;;;;5038160;28;20247;-55
2024/01/30 07:54:34;;;;;;;13.47;9.13;;;4.50;99.90;;;;;;5020761;28;20196;-53
2024/01/30 08:01:28;;;;;;;12.87;9.30;;;4.60;99.90;;;;;;5035576;28;20717;-52
2024/01/30 08:03:55;;;;;;;14.47;9.50;;;4.60;99.90;;;;;;5035268;28;20199;-54
2024/01/30 08:06:23;;;;;;;11.10;9.50;;;4.60;99.90;;;;;;5041299;28;20202;-52
2024/01/30 08:08:53;;;;;;;11.53;9.50;;;4.60;99.90;;;;;;5037665;28;20203;-53
2024/01/30 08:11:25;;;;;;;11.03;9.13;;;4.60;99.90;;;;;;5033041;28;20247;-54
2024/01/30 08:13:52;;;;;;;13.97;9.80;;;4.70;99.90;;;;;;5045529;28;20202;-54
2024/01/30 08:16:19;;;;;;;15.03;10.13;;;4.80;99.90;;;;;;4991070;28;20360;-54
2024/01/30 08:18:45;;;;;;;14.07;9.93;;;4.80;99.90;;;;;;5030106;28;20280;-54
2024/01/30 08:21:12;;;;;;;13.33;9.83;;;4.80;99.90;;;;;;5037579;28;20273;-52
2024/01/30 08:23:41;;;;;;;14.43;10.70;;;4.80;99.90;;;;;;5036223;28;20791;-51
2024/01/30 08:26:07;;;;;;;13.60;10.50;;;4.90;99.90;;;;;;5033559;28;21094;-56
2024/01/30 08:28:34;;;;;;;13.63;10.43;;;5.00;99.90;;;;;;5040231;28;20687;-56
2024/01/30 08:31:01;;;;;;;17.00;10.87;;;5.00;99.90;;;;;;5007788;28;20231;-55
2024/01/30 08:33:28;;;;;;;14.17;10.37;;;5.00;99.90;;;;;;5020883;28;20262;-54
2024/01/30 08:35:55;;;;;;;15.77;10.63;;;5.10;99.90;;;;;;5040909;28;20203;-55
2024/01/30 08:38:21;;;;;;;15.00;10.17;;;5.10;99.90;;;;;;5034158;28;20193;-54
2024/01/30 08:40:50;;;;;;;15.60;10.37;;;5.20;99.90;;;;;;5031691;28;20285;-54
2024/01/30 08:43:17;;;;;;;13.50;9.97;;;5.30;99.90;;;;;;5024514;28;20242;-51
2024/01/30 08:45:44;;;;;;;17.53;10.27;;;5.30;99.90;;;;;;5025149;28;20258;-51
2024/01/30 08:48:11;;;;;;;14.80;11.23;;;5.40;99.90;;;;;;4997585;28;20641;-52
2024/01/30 08:50:37;;;;;;;16.40;10.53;;;5.50;99.90;;;;;;5032286;28;20220;-52
2024/01/30 08:53:05;;;;;;;16.53;10.33;;;5.50;99.90;;;;;;5034651;28;20199;-55
2024/01/30 08:55:31;;;;;;;12.70;10.27;;;5.50;99.90;;;;;;5029387;28;20197;-55
2024/01/30 08:58:00;;;;;;;16.23;10.57;;;5.60;99.90;;;;;;5025238;28;20250;-53
2024/01/30 09:00:26;;;;;;;14.73;10.83;;;5.60;99.90;;;;;;5026212;28;20246;-55
2024/01/30 09:02:54;;;;;;;15.47;10.77;;;5.60;99.90;;;;;;5011872;28;20232;-54
2024/01/30 09:05:20;;;;;;;13.10;10.27;;;5.70;99.90;;;;;;5034863;28;20210;-53
2024/01/30 09:07:47;;;;;;;13.13;10.73;;;5.70;99.90;;;;;;5040486;28;20199;-54
2024/01/30 09:10:14;;;;;;;15.97;10.10;;;5.80;99.90;;;;;;5037630;28;20761;-52
2024/01/30 09:12:41;;;;;;;12.73;9.97;;;5.90;99.90;;;;;;5027919;28;20303;-55
2024/01/30 09:15:10;;;;;;;14.17;10.77;;;5.90;99.90;;;;;;5029697;28;20191;-55
2024/01/30 09:17:37;;;;;;;16.30;10.90;;;6.00;99.90;;;;;;5033947;28;20207;-56
2024/01/30 09:20:04;;;;;;;14.53;10.63;;;6.00;99.90;;;;;;5001670;28;20281;-60
2024/01/30 09:22:31;;;;;;;17.30;10.70;;;6.10;99.90;;;;;;5036305;28;20580;-55
2024/01/30 09:24:58;;;;;;;12.67;10.40;;;6.10;99.90;;;;;;5037052;28;20195;-55
2024/01/30 09:27:25;;;;;;;13.70;10.43;;;6.20;99.90;;;;;;5029398;28;20199;-57
2024/01/30 09:29:52;;;;;;;12.67;10.70;;;6.30;99.90;;;;;;5012718;28;20696;-55
2024/01/30 09:32:20;;;;;;;12.33;10.00;;;6.30;99.90;;;;;;5022245;28;20219;-52
2024/01/30 09:34:47;;;;;;;14.63;10.80;;;6.40;99.90;;;;;;5003744;28;20212;-52
2024/01/30 09:37:15;;;;;;;15.93;10.97;;;6.40;99.90;;;;;;5036775;28;20188;-55
2024/01/30 09:39:42;;;;;;;15.47;11.13;;;6.50;99.90;;;;;;5034775;28;20191;-52
2024/01/30 09:42:17;;;;;;;15.77;11.83;;;6.60;99.90;;;;;;5028849;28;20230;-53
2024/01/30 09:44:45;;;;;;;18.10;11.87;;;6.60;99.90;;;;;;5024242;28;20621;-54
2024/01/30 09:47:12;;;;;;;13.17;10.73;;;6.60;99.90;;;;;;5023827;28;20245;-56
2024/01/30 09:49:43;;;;;;;13.80;10.00;;;6.70;99.90;;;;;;5005989;28;20239;-52
2024/01/30 09:52:10;;;;;;;15.73;11.13;;;6.70;99.90;;;;;;5030355;28;20312;-55
2024/01/30 09:54:37;;;;;;;14.57;10.10;;;6.70;99.90;;;;;;5035570;28;20199;-54
2024/01/30 09:57:04;;;;;;;12.03;9.83;;;6.80;99.90;;;;;;5032202;28;20334;-56
2024/01/30 09:59:31;;;;;;;14.27;9.83;;;6.80;99.90;;;;;;5025081;28;20211;-52
2024/01/30 10:01:58;;;;;;;17.13;10.90;;;6.90;99.90;;;;;;5036730;28;20274;-56
2024/01/30 10:04:25;;;;;;;12.13;10.03;;;6.90;99.90;;;;;;5032332;28;20260;-57
2024/01/30 10:06:53;;;;;;;13.70;10.40;;;7.00;99.90;;;;;;5003247;28;20204;-55
2024/01/30 10:09:21;;;;;;;14.97;10.90;;;7.10;99.90;;;;;;5037554;28;20218;-53
2024/01/30 10:11:49;;;;;;;14.97;10.77;;;7.10;99.90;;;;;;5038568;28;20228;-52
2024/01/30 10:14:17;;;;;;;16.20;10.63;;;7.20;99.90;;;;;;5038407;28;20191;-51
2024/01/30 10:16:45;;;;;;;12.03;9.83;;;7.30;99.90;;;;;;5025970;28;20205;-53
2024/01/30 10:19:12;;;;;;;14.97;10.57;;;7.30;99.90;;;;;;5029306;28;20281;-54
2024/01/30 10:21:39;;;;;;;16.33;10.97;;;7.40;99.90;;;;;;5007603;28;20696;-55
2024/01/30 10:24:07;;;;;;;13.87;10.33;;;7.40;99.90;;;;;;5038889;28;20203;-56
2024/01/30 10:26:34;;;;;;;13.20;10.30;;;7.50;99.90;;;;;;5040024;28;20671;-52
2024/01/30 10:29:02;;;;;;;12.33;9.70;;;7.50;99.90;;;;;;5036910;28;20192;-55
2024/01/30 10:31:29;;;;;;;14.73;10.37;;;7.50;99.90;;;;;;5010600;28;20321;-52
2024/01/30 10:33:56;;;;;;;12.07;10.10;;;7.60;99.90;;;;;;5041066;28;20225;-55
2024/01/30 10:36:28;;;;;;;13.07;11.13;;;7.70;99.90;;;;;;4993866;28;20266;-56
2024/01/30 10:38:59;;;;;;;13.03;10.03;;;7.70;99.90;;;;;;5035055;28;20258;-55
2024/01/30 10:41:28;;;;;;;12.67;10.43;;;7.80;99.90;;;;;;5034523;28;20222;-55
2024/01/30 10:44:03;;;;;;;13.30;10.47;;;7.80;99.90;;;;;;5036564;28;20258;-55
2024/01/30 10:46:33;;;;;;;17.67;10.87;;;7.90;99.90;;;;;;5028786;28;20398;-56
2024/01/30 10:49:01;;;;;;;17.00;11.00;;;7.90;99.90;;;;;;5026837;28;20285;-55
2024/01/30 10:51:29;;;;;;;15.63;10.07;;;8.00;99.90;;;;;;5002395;28;20223;-55
2024/01/30 10:53:57;;;;;;;14.47;9.97;;;8.00;99.90;;;;;;5037314;28;20203;-56
2024/01/30 10:56:24;;;;;;;14.10;9.67;;;8.10;99.90;;;;;;5034615;28;20195;-52
2024/01/30 10:58:53;;;;;;;14.10;9.87;;;8.10;99.90;;;;;;5039220;28;20191;-56
2024/01/30 11:01:23;;;;;;;14.57;10.17;;;8.20;99.90;;;;;;5040660;28;20292;-52
2024/01/30 11:03:50;;;;;;;16.57;9.60;;;8.30;99.90;;;;;;5034901;28;20203;-53
2024/01/30 11:06:18;;;;;;;12.00;9.53;;;8.30;99.90;;;;;;5006634;28;21321;-56
2024/01/30 11:08:46;;;;;;;14.47;9.67;;;8.40;99.90;;;;;;5037908;28;20191;-53
2024/01/30 11:11:13;;;;;;;14.70;10.20;;;8.40;99.90;;;;;;5031385;28;20227;-54
2024/01/30 11:13:41;;;;;;;12.53;9.93;;;8.50;99.90;;;;;;5041912;28;20245;-55
2024/01/30 11:16:13;;;;;;;15.40;9.53;;;8.50;99.90;;;;;;5036982;28;20949;-56
2024/01/30 11:18:40;;;;;;;13.53;9.37;;;8.50;99.90;;;;;;5029233;28;20203;-53
2024/01/30 11:21:06;;;;;;;15.33;10.63;;;8.60;99.90;;;;;;5024377;28;20277;-54
2024/01/30 11:23:35;;;;;;;18.80;9.83;;;8.60;99.90;;;;;;5003727;28;20204;-52
2024/01/30 11:26:02;;;;;;;13.67;9.60;;;8.60;99.90;;;;;;5010340;28;20721;-54
2024/01/30 11:28:34;;;;;;;10.93;9.03;;;8.70;99.90;;;;;;5030735;28;20207;-54
2024/01/30 11:31:05;;;;;;;14.23;8.97;;;8.70;99.90;;;;;;5018212;28;20223;-54
2024/01/30 11:33:34;;;;;;;13.93;10.63;;;8.70;99.90;;;;;;5028555;28;20215;-52
2024/01/30 11:36:01;;;;;;;13.37;10.17;;;8.70;99.90;;;;;;5031142;28;20286;-53
2024/01/30 11:38:29;;;;;;;11.17;9.87;;;8.70;99.90;;;;;;5016893;28;20211;-52
2024/01/30 11:40:56;;;;;;;14.60;10.17;;;8.80;99.90;;;;;;5026539;28;20262;-56
2024/01/30 11:43:23;;;;;;;13.43;9.53;;;8.80;99.90;;;;;;5022915;28;20222;-55
2024/01/30 11:45:50;;;;;;;16.00;10.50;;;8.80;99.90;;;;;;5040348;28;20199;-55
2024/01/30 11:48:17;;;;;;;13.30;10.17;;;8.70;99.90;;;;;;5027915;28;21194;-55
2024/01/30 11:50:46;;;;;;;13.87;9.47;;;8.70;99.90;;;;;;5028786;28;20234;-54
2024/01/30 11:53:12;;;;;;;16.90;9.87;;;8.70;99.90;;;;;;5022763;28;20261;-54
2024/01/30 11:55:39;;;;;;;15.63;10.03;;;8.70;99.90;;;;;;5008841;28;20558;-57
2024/01/30 11:58:06;;;;;;;15.07;10.40;;;8.80;99.90;;;;;;5035698;28;20207;-54
2024/01/30 12:00:33;;;;;;;14.23;9.97;;;8.80;99.90;;;;;;5035906;28;20211;-53
2024/01/30 12:03:01;;;;;;;14.90;9.43;;;8.80;99.90;;;;;;5033303;28;20192;-54
2024/01/30 12:05:29;;;;;;;13.03;10.57;;;8.80;99.90;;;;;;5026704;28;20227;-52
2024/01/30 12:07:58;;;;;;;12.93;9.70;;;8.80;99.90;;;;;;5027643;28;20203;-53
2024/01/30 12:10:26;;;;;;;16.40;10.73;;;8.80;99.90;;;;;;5002766;28;20224;-52
2024/01/30 12:12:54;;;;;;;13.07;9.93;;;8.80;99.90;;;;;;5029276;28;20223;-55
2024/01/30 12:15:23;;;;;;;13.83;10.07;;;8.80;99.90;;;;;;5031111;28;20207;-51
2024/01/30 12:17:50;;;;;;;14.00;9.57;;;8.90;99.90;;;;;;5039155;28;20195;-54
2024/01/30 12:20:19;;;;;;;15.27;10.47;;;8.90;99.90;;;;;;5025504;28;20208;-54
2024/01/30 12:22:47;;;;;;;15.53;9.77;;;8.90;99.90;;;;;;5033960;28;20215;-55
2024/01/30 12:25:16;;;;;;;14.80;10.53;;;8.90;99.90;;;;;;5024453;28;20187;-55
2024/01/30 12:27:45;;;;;;;15.53;10.30;;;8.90;99.90;;;;;;4999459;28;20208;-54
2024/01/30 12:30:14;;;;;;;16.77;10.93;;;8.90;99.90;;;;;;5032262;28;20223;-53
2024/01/30 12:32:42;;;;;;;15.50;10.83;;;8.90;99.90;;;;;;5037469;28;20223;-53
2024/01/30 12:35:11;;;;;;;14.70;10.37;;;8.90;99.90;;;;;;5028308;28;20682;-55
2024/01/30 12:37:38;;;;;;;13.40;9.13;;;9.00;99.90;;;;;;5036102;28;20218;-52
2024/01/30 12:40:06;;;;;;;15.37;9.93;;;9.00;99.90;;;;;;5028250;28;20204;-55
2024/01/30 12:42:34;;;;;;;15.23;9.33;;;9.10;99.90;;;;;;5008137;28;20215;-55
2024/01/30 12:45:01;;;;;;;13.73;10.17;;;9.10;99.90;;;;;;5026378;28;20195;-52
2024/01/30 12:47:28;;;;;;;15.40;9.33;;;9.10;99.90;;;;;;5023905;28;20199;-53
2024/01/30 12:49:55;;;;;;;10.70;8.40;;;9.20;99.90;;;;;;5024978;28;20230;-54
2024/01/30 12:52:23;;;;;;;11.10;8.37;;;9.20;99.90;;;;;;5023182;28;20261;-55